sensor_id;sensor_type;location;lat;lon;timestamp;P1;durP1;ratioP1;P2;durP2;ratioP2
35245;SDS011;21379;50.962;6.960;2022-09-27T20:20:24;2.78;;;1.90;;
35245;SDS011;21379;50.962;6.960;2022-09-27T20:22:51;3.78;;;1.92;;
35245;SDS011;21379;50.962;6.960;2022-09-27T20:25:18;5.22;;;2.65;;
35245;SDS011;21379;50.962;6.960;2022-09-27T20:27:45;3.63;;;2.15;;
35245;SDS011;21379;50.962;6.960;2022-09-27T20:30:12;3.20;;;1.83;;
35245;SDS011;21379;50.962;6.960;2022-09-27T20:32:39;5.97;;;2.00;;
35245;SDS011;21379;50.962;6.960;2022-09-27T20:35:27;3.08;;;1.50;;
35245;SDS011;21379;50.962;6.960;2022-09-27T20:37:54;7.05;;;2.35;;
35245;SDS011;21379;50.962;6.960;2022-09-27T20:40:21;6.00;;;1.77;;
35245;SDS011;21379;50.962;6.960;2022-09-27T20:42:48;6.60;;;1.80;;
35245;SDS011;21379;50.962;6.960;2022-09-27T20:45:15;3.47;;;2.00;;
35245;SDS011;21379;50.962;6.960;2022-09-27T20:47:41;4.78;;;1.98;;
35245;SDS011;21379;50.962;6.960;2022-09-27T20:50:08;4.60;;;2.45;;
35245;SDS011;21379;50.962;6.960;2022-09-27T20:52:37;2.63;;;1.65;;
35245;SDS011;21379;50.962;6.960;2022-09-27T20:55:04;3.60;;;1.98;;
35245;SDS011;21379;50.962;6.960;2022-09-27T20:57:32;3.20;;;1.83;;
35245;SDS011;21379;50.962;6.960;2022-09-27T20:59:59;4.25;;;2.13;;
35245;SDS011;21379;50.962;6.960;2022-09-27T21:02:26;6.05;;;2.42;;
35245;SDS011;21379;50.962;6.960;2022-09-27T21:04:53;6.85;;;1.67;;
35245;SDS011;21379;50.962;6.960;2022-09-27T21:07:21;4.13;;;2.25;;
35245;SDS011;21379;50.962;6.960;2022-09-27T21:09:49;2.65;;;1.88;;
35245;SDS011;21379;50.962;6.960;2022-09-27T21:12:16;6.55;;;2.08;;
35245;SDS011;21379;50.962;6.960;2022-09-27T21:14:43;2.10;;;1.77;;
35245;SDS011;21379;50.962;6.960;2022-09-27T21:17:10;2.22;;;1.90;;
35245;SDS011;21379;50.962;6.960;2022-09-27T21:19:36;5.43;;;2.13;;
35245;SDS011;21379;50.962;6.960;2022-09-27T21:22:03;9.88;;;2.35;;
35245;SDS011;21379;50.962;6.960;2022-09-27T21:24:30;4.82;;;2.20;;
35245;SDS011;21379;50.962;6.960;2022-09-27T21:26:58;5.63;;;2.50;;
35245;SDS011;21379;50.962;6.960;2022-09-27T21:29:25;3.75;;;2.15;;
35245;SDS011;21379;50.962;6.960;2022-09-27T21:31:52;4.43;;;2.20;;
35245;SDS011;21379;50.962;6.960;2022-09-27T21:34:19;4.28;;;2.03;;
35245;SDS011;21379;50.962;6.960;2022-09-27T21:36:46;7.15;;;1.95;;
35245;SDS011;21379;50.962;6.960;2022-09-27T21:39:12;2.65;;;1.65;;
35245;SDS011;21379;50.962;6.960;2022-09-27T21:41:40;3.55;;;1.58;;
35245;SDS011;21379;50.962;6.960;2022-09-27T21:44:09;3.15;;;1.40;;
35245;SDS011;21379;50.962;6.960;2022-09-27T21:46:38;5.55;;;1.63;;
35245;SDS011;21379;50.962;6.960;2022-09-27T21:49:05;2.20;;;1.20;;
35245;SDS011;21379;50.962;6.960;2022-09-27T21:51:35;3.05;;;1.40;;
35245;SDS011;21379;50.962;6.960;2022-09-27T21:54:04;3.00;;;1.33;;
35245;SDS011;21379;50.962;6.960;2022-09-27T21:56:33;1.95;;;1.00;;
35245;SDS011;21379;50.962;6.960;2022-09-27T21:59:01;1.83;;;0.95;;
35245;SDS011;21379;50.962;6.960;2022-09-27T22:01:31;1.60;;;0.85;;
35245;SDS011;21379;50.962;6.960;2022-09-27T22:03:59;1.33;;;0.70;;
35245;SDS011;21379;50.962;6.960;2022-09-27T22:06:27;1.27;;;0.80;;
35245;SDS011;21379;50.962;6.960;2022-09-27T22:08:57;1.73;;;0.95;;
35245;SDS011;21379;50.962;6.960;2022-09-27T22:11:25;0.68;;;0.68;;
35245;SDS011;21379;50.962;6.960;2022-09-27T22:13:53;1.60;;;1.00;;
35245;SDS011;21379;50.962;6.960;2022-09-27T22:16:20;1.77;;;0.80;;
35245;SDS011;21379;50.962;6.960;2022-09-27T22:18:50;1.45;;;0.95;;
35245;SDS011;21379;50.962;6.960;2022-09-27T22:21:19;1.27;;;0.65;;
35245;SDS011;21379;50.962;6.960;2022-09-27T22:23:47;2.17;;;0.80;;
35245;SDS011;21379;50.962;6.960;2022-09-27T22:26:18;2.45;;;0.70;;
35245;SDS011;21379;50.962;6.960;2022-09-27T22:28:46;1.70;;;0.85;;
35245;SDS011;21379;50.962;6.960;2022-09-27T22:31:14;2.05;;;0.70;;
35245;SDS011;21379;50.962;6.960;2022-09-27T22:33:46;2.85;;;0.52;;
35245;SDS011;21379;50.962;6.960;2022-09-27T22:36:15;2.60;;;0.65;;
35245;SDS011;21379;50.962;6.960;2022-09-27T22:38:42;0.93;;;0.60;;
35245;SDS011;21379;50.962;6.960;2022-09-27T22:41:09;2.53;;;0.52;;
35245;SDS011;21379;50.962;6.960;2022-09-27T22:43:36;1.33;;;1.23;;
35245;SDS011;21379;50.962;6.960;2022-09-27T22:46:03;2.10;;;0.80;;
35245;SDS011;21379;50.962;6.960;2022-09-27T22:48:31;1.27;;;0.55;;
35245;SDS011;21379;50.962;6.960;2022-09-27T22:50:58;3.47;;;0.75;;
35245;SDS011;21379;50.962;6.960;2022-09-27T22:53:27;2.55;;;1.08;;
35245;SDS011;21379;50.962;6.960;2022-09-27T22:55:55;2.10;;;0.60;;
35245;SDS011;21379;50.962;6.960;2022-09-27T22:58:22;0.60;;;0.60;;
35245;SDS011;21379;50.962;6.960;2022-09-27T23:00:49;1.50;;;0.93;;
35245;SDS011;21379;50.962;6.960;2022-09-27T23:03:16;1.15;;;0.82;;
35245;SDS011;21379;50.962;6.960;2022-09-27T23:05:43;7.38;;;1.20;;
35245;SDS011;21379;50.962;6.960;2022-09-27T23:08:10;6.13;;;1.75;;
35245;SDS011;21379;50.962;6.960;2022-09-27T23:10:39;5.55;;;1.45;;
35245;SDS011;21379;50.962;6.960;2022-09-27T23:13:06;8.05;;;2.15;;
35245;SDS011;21379;50.962;6.960;2022-09-27T23:15:33;7.45;;;1.63;;
35245;SDS011;21379;50.962;6.960;2022-09-27T23:18:00;4.43;;;1.52;;
35245;SDS011;21379;50.962;6.960;2022-09-27T23:20:27;8.18;;;2.15;;
35245;SDS011;21379;50.962;6.960;2022-09-27T23:22:54;2.90;;;1.25;;
35245;SDS011;21379;50.962;6.960;2022-09-27T23:25:20;3.47;;;1.30;;
35245;SDS011;21379;50.962;6.960;2022-09-27T23:27:49;3.55;;;0.90;;
35245;SDS011;21379;50.962;6.960;2022-09-27T23:30:17;5.32;;;1.27;;
35245;SDS011;21379;50.962;6.960;2022-09-27T23:32:50;2.38;;;1.10;;
35245;SDS011;21379;50.962;6.960;2022-09-27T23:35:17;6.80;;;1.40;;
35245;SDS011;21379;50.962;6.960;2022-09-27T23:37:44;3.10;;;1.45;;
35245;SDS011;21379;50.962;6.960;2022-09-27T23:40:11;1.23;;;0.65;;
35245;SDS011;21379;50.962;6.960;2022-09-27T23:42:38;1.35;;;0.40;;
35245;SDS011;21379;50.962;6.960;2022-09-27T23:45:06;0.65;;;0.60;;
35245;SDS011;21379;50.962;6.960;2022-09-27T23:47:35;1.45;;;0.50;;
35245;SDS011;21379;50.962;6.960;2022-09-27T23:50:04;2.30;;;0.75;;
35245;SDS011;21379;50.962;6.960;2022-09-27T23:52:31;2.47;;;0.60;;
35245;SDS011;21379;50.962;6.960;2022-09-27T23:54:58;0.70;;;0.55;;
35245;SDS011;21379;50.962;6.960;2022-09-27T23:57:25;1.88;;;0.60;;
35245;SDS011;21379;50.962;6.960;2022-09-27T23:59:52;1.73;;;0.70;;
